Ottawa Macdonald-Cartier International Airport
CYOW : now visible

Airfield :











YOU CAN JOIN US ON...

 
LOGIN :

Register | Disclaimer

   EN    FR    IT 

 









Legend :    VFR   Marginal VFR   IFR   Intensive IFR   Very Intensive IFR
Visi :
Ceiling :
>= 8 km
>= 3000ft
5 to 8 km
1000 to 3000 ft
1500m to 5 km
500 to 1000 ft
800 to 1500m
200 to 500 ft
< 800m
< 200 ft
Symbols :   Thunderstorms  Fog  Heavy snow  Heavy precipitations  Wind > 20 kt






- Airport Elevation : 374 ft
- IATA code : YOW


CYOW - Ottawa Macdonald-Cartier International

CURRENT METAR :
  • 190200Z 04008KT 15SM OVC180 M04/M09 A2982 RMK AS8 SLP107

EXPIRED METARs :
  • 190100Z 06009KT 15SM BKN180 M03/M09 A2984 RMK AS7 SLP112
  • 190000Z 06009KT 15SM BKN190 M02/M08 A2984 RMK AS7 SLP114

TAF TAF CYOW
Valid from the 19 at 00:00 until the 20 at 00:00 UTC


182339Z 1900/1924 04008KT P6SM FEW030 BKN180
FM190200 34005KT P6SM SCT025 OVC200
FM191000 VRB03KT P6SM SCT015 OVC100
BECMG 1914/1916 30005KT RMK NXT FCST BY 190300Z



MET'MAP, your aeronautical weather chart ! - Copyright ORBIFLY December 2007 - Disclaimer

ORBIFLY MET'MAP TEAM :

Programming & Development : Alexandra Zaïnal
Concept & Development : Baudouin d'Aumeries
Co-Development & Prog : Marc-Olivier Méhu
Technical & hardware support : Manuel Goepfert

Contact : metmap@orbifly.com




SOURCES & CREDITS :

   NOAA       Earth
Advisory